sensor_id;sensor_type;location;lat;lon;timestamp;P1;durP1;ratioP1;P2;durP2;ratioP2
63807;SDS011;49961;43.970;22.868;2023-11-21T00:00:55;4.63;;;2.70;;
63807;SDS011;49961;43.970;22.868;2023-11-21T00:01:55;3.87;;;2.20;;
63807;SDS011;49961;43.970;22.868;2023-11-21T00:02:57;4.10;;;2.07;;
63807;SDS011;49961;43.970;22.868;2023-11-21T00:03:57;3.80;;;2.20;;
63807;SDS011;49961;43.970;22.868;2023-11-21T00:04:58;4.43;;;2.47;;
63807;SDS011;49961;43.970;22.868;2023-11-21T00:05:58;4.63;;;2.50;;
63807;SDS011;49961;43.970;22.868;2023-11-21T00:06:59;4.67;;;2.90;;
63807;SDS011;49961;43.970;22.868;2023-11-21T00:07:59;5.23;;;3.00;;
63807;SDS011;49961;43.970;22.868;2023-11-21T00:09:00;3.90;;;2.23;;
63807;SDS011;49961;43.970;22.868;2023-11-21T00:10:00;4.87;;;2.50;;
63807;SDS011;49961;43.970;22.868;2023-11-21T00:11:01;3.90;;;2.23;;
63807;SDS011;49961;43.970;22.868;2023-11-21T00:12:01;4.47;;;2.33;;
63807;SDS011;49961;43.970;22.868;2023-11-21T00:13:02;3.63;;;2.20;;
63807;SDS011;49961;43.970;22.868;2023-11-21T00:14:03;4.07;;;2.40;;
63807;SDS011;49961;43.970;22.868;2023-11-21T00:15:04;5.80;;;2.07;;
63807;SDS011;49961;43.970;22.868;2023-11-21T00:16:11;6.50;;;2.13;;
63807;SDS011;49961;43.970;22.868;2023-11-21T00:17:11;4.23;;;2.37;;
63807;SDS011;49961;43.970;22.868;2023-11-21T00:18:11;4.63;;;2.50;;
63807;SDS011;49961;43.970;22.868;2023-11-21T00:19:12;5.17;;;2.13;;
63807;SDS011;49961;43.970;22.868;2023-11-21T00:20:12;5.00;;;2.53;;
63807;SDS011;49961;43.970;22.868;2023-11-21T00:21:13;4.57;;;2.70;;
63807;SDS011;49961;43.970;22.868;2023-11-21T00:22:14;3.97;;;1.97;;
63807;SDS011;49961;43.970;22.868;2023-11-21T00:23:16;4.77;;;2.20;;
63807;SDS011;49961;43.970;22.868;2023-11-21T00:24:16;7.10;;;2.43;;
63807;SDS011;49961;43.970;22.868;2023-11-21T00:25:17;4.73;;;2.20;;
63807;SDS011;49961;43.970;22.868;2023-11-21T00:26:18;5.20;;;2.50;;
63807;SDS011;49961;43.970;22.868;2023-11-21T00:27:18;5.23;;;2.30;;
63807;SDS011;49961;43.970;22.868;2023-11-21T00:28:19;5.20;;;2.10;;
63807;SDS011;49961;43.970;22.868;2023-11-21T00:29:19;6.07;;;2.30;;
63807;SDS011;49961;43.970;22.868;2023-11-21T00:30:19;5.30;;;2.40;;
63807;SDS011;49961;43.970;22.868;2023-11-21T00:31:22;3.40;;;2.10;;
63807;SDS011;49961;43.970;22.868;2023-11-21T00:32:22;4.30;;;2.50;;
63807;SDS011;49961;43.970;22.868;2023-11-21T00:33:23;4.07;;;2.30;;
63807;SDS011;49961;43.970;22.868;2023-11-21T00:34:25;4.17;;;2.33;;
63807;SDS011;49961;43.970;22.868;2023-11-21T00:35:25;5.83;;;2.70;;
63807;SDS011;49961;43.970;22.868;2023-11-21T00:36:26;5.27;;;2.43;;
63807;SDS011;49961;43.970;22.868;2023-11-21T00:37:27;4.50;;;2.33;;
63807;SDS011;49961;43.970;22.868;2023-11-21T00:38:28;5.07;;;2.37;;
63807;SDS011;49961;43.970;22.868;2023-11-21T00:39:28;5.57;;;2.30;;
63807;SDS011;49961;43.970;22.868;2023-11-21T00:40:29;8.00;;;2.63;;
63807;SDS011;49961;43.970;22.868;2023-11-21T00:41:29;5.63;;;2.80;;
63807;SDS011;49961;43.970;22.868;2023-11-21T00:42:30;4.70;;;2.40;;
63807;SDS011;49961;43.970;22.868;2023-11-21T00:43:32;5.70;;;2.10;;
63807;SDS011;49961;43.970;22.868;2023-11-21T00:44:33;5.60;;;2.30;;
63807;SDS011;49961;43.970;22.868;2023-11-21T00:45:34;4.97;;;2.37;;
63807;SDS011;49961;43.970;22.868;2023-11-21T00:46:36;4.57;;;2.30;;
63807;SDS011;49961;43.970;22.868;2023-11-21T00:47:37;6.30;;;2.10;;
63807;SDS011;49961;43.970;22.868;2023-11-21T00:48:38;5.03;;;2.40;;
63807;SDS011;49961;43.970;22.868;2023-11-21T00:49:39;4.80;;;2.00;;
63807;SDS011;49961;43.970;22.868;2023-11-21T00:50:39;6.00;;;2.50;;
63807;SDS011;49961;43.970;22.868;2023-11-21T00:51:40;5.23;;;2.40;;
63807;SDS011;49961;43.970;22.868;2023-11-21T00:52:40;4.57;;;2.53;;
63807;SDS011;49961;43.970;22.868;2023-11-21T00:53:41;2.83;;;1.80;;
63807;SDS011;49961;43.970;22.868;2023-11-21T00:54:41;4.83;;;2.40;;
63807;SDS011;49961;43.970;22.868;2023-11-21T00:55:42;4.23;;;2.20;;
63807;SDS011;49961;43.970;22.868;2023-11-21T00:56:43;5.93;;;2.70;;
63807;SDS011;49961;43.970;22.868;2023-11-21T00:57:43;4.63;;;2.20;;
63807;SDS011;49961;43.970;22.868;2023-11-21T00:58:44;4.83;;;2.30;;
63807;SDS011;49961;43.970;22.868;2023-11-21T00:59:49;7.87;;;2.10;;
63807;SDS011;49961;43.970;22.868;2023-11-21T01:00:50;3.37;;;2.10;;
63807;SDS011;49961;43.970;22.868;2023-11-21T01:01:50;4.67;;;2.53;;
63807;SDS011;49961;43.970;22.868;2023-11-21T01:02:51;6.63;;;2.33;;
63807;SDS011;49961;43.970;22.868;2023-11-21T01:03:51;6.40;;;2.30;;
63807;SDS011;49961;43.970;22.868;2023-11-21T01:04:52;3.67;;;1.90;;
63807;SDS011;49961;43.970;22.868;2023-11-21T01:05:52;3.60;;;2.07;;
63807;SDS011;49961;43.970;22.868;2023-11-21T01:06:53;2.87;;;1.80;;
63807;SDS011;49961;43.970;22.868;2023-11-21T01:07:54;4.43;;;2.23;;
63807;SDS011;49961;43.970;22.868;2023-11-21T01:08:54;6.00;;;2.20;;
63807;SDS011;49961;43.970;22.868;2023-11-21T01:09:55;3.23;;;1.73;;
63807;SDS011;49961;43.970;22.868;2023-11-21T01:10:56;4.77;;;2.03;;
63807;SDS011;49961;43.970;22.868;2023-11-21T01:11:56;3.47;;;1.80;;
63807;SDS011;49961;43.970;22.868;2023-11-21T01:12:57;3.17;;;2.13;;
63807;SDS011;49961;43.970;22.868;2023-11-21T01:13:57;3.97;;;1.80;;
63807;SDS011;49961;43.970;22.868;2023-11-21T01:14:59;5.27;;;1.93;;
63807;SDS011;49961;43.970;22.868;2023-11-21T01:16:00;2.47;;;1.60;;
63807;SDS011;49961;43.970;22.868;2023-11-21T01:17:01;4.40;;;1.97;;
63807;SDS011;49961;43.970;22.868;2023-11-21T01:18:02;3.20;;;1.70;;
63807;SDS011;49961;43.970;22.868;2023-11-21T01:19:03;3.80;;;2.00;;
63807;SDS011;49961;43.970;22.868;2023-11-21T01:20:04;3.20;;;1.80;;
63807;SDS011;49961;43.970;22.868;2023-11-21T01:21:11;2.70;;;1.57;;
63807;SDS011;49961;43.970;22.868;2023-11-21T01:22:12;2.37;;;1.43;;
63807;SDS011;49961;43.970;22.868;2023-11-21T01:23:12;2.53;;;1.60;;
63807;SDS011;49961;43.970;22.868;2023-11-21T01:24:13;2.37;;;1.47;;
63807;SDS011;49961;43.970;22.868;2023-11-21T01:25:14;4.37;;;1.83;;
63807;SDS011;49961;43.970;22.868;2023-11-21T01:26:16;3.37;;;2.10;;
63807;SDS011;49961;43.970;22.868;2023-11-21T01:27:16;2.77;;;1.63;;
63807;SDS011;49961;43.970;22.868;2023-11-21T01:28:17;2.23;;;1.10;;
63807;SDS011;49961;43.970;22.868;2023-11-21T01:29:17;2.60;;;1.37;;
63807;SDS011;49961;43.970;22.868;2023-11-21T01:30:18;3.10;;;1.63;;
63807;SDS011;49961;43.970;22.868;2023-11-21T01:31:18;2.93;;;1.53;;
63807;SDS011;49961;43.970;22.868;2023-11-21T01:32:20;4.13;;;1.70;;
63807;SDS011;49961;43.970;22.868;2023-11-21T01:33:21;4.80;;;1.90;;
63807;SDS011;49961;43.970;22.868;2023-11-21T01:34:21;4.67;;;1.47;;
63807;SDS011;49961;43.970;22.868;2023-11-21T01:35:21;4.77;;;1.93;;
63807;SDS011;49961;43.970;22.868;2023-11-21T01:36:22;2.97;;;1.60;;
63807;SDS011;49961;43.970;22.868;2023-11-21T01:37:23;3.17;;;1.33;;
63807;SDS011;49961;43.970;22.868;2023-11-21T01:38:24;3.60;;;1.60;;
63807;SDS011;49961;43.970;22.868;2023-11-21T01:39:25;4.57;;;1.73;;
63807;SDS011;49961;43.970;22.868;2023-11-21T01:40:25;3.90;;;1.90;;
63807;SDS011;49961;43.970;22.868;2023-11-21T01:41:26;2.43;;;1.57;;
63807;SDS011;49961;43.970;22.868;2023-11-21T01:42:28;2.97;;;1.67;;
63807;SDS011;49961;43.970;22.868;2023-11-21T01:43:29;3.17;;;1.63;;
63807;SDS011;49961;43.970;22.868;2023-11-21T01:44:31;3.53;;;1.60;;
63807;SDS011;49961;43.970;22.868;2023-11-21T01:45:31;3.70;;;1.70;;
63807;SDS011;49961;43.970;22.868;2023-11-21T01:46:35;2.60;;;1.27;;
63807;SDS011;49961;43.970;22.868;2023-11-21T01:47:38;2.97;;;1.50;;
63807;SDS011;49961;43.970;22.868;2023-11-21T01:48:39;4.57;;;1.80;;
63807;SDS011;49961;43.970;22.868;2023-11-21T01:49:40;3.00;;;1.63;;
63807;SDS011;49961;43.970;22.868;2023-11-21T01:50:43;3.03;;;1.40;;
63807;SDS011;49961;43.970;22.868;2023-11-21T01:51:45;2.70;;;1.60;;
63807;SDS011;49961;43.970;22.868;2023-11-21T01:52:49;2.77;;;1.60;;
63807;SDS011;49961;43.970;22.868;2023-11-21T01:53:49;5.60;;;1.60;;
63807;SDS011;49961;43.970;22.868;2023-11-21T01:54:50;3.23;;;1.70;;
63807;SDS011;49961;43.970;22.868;2023-11-21T01:55:51;4.07;;;1.70;;
63807;SDS011;49961;43.970;22.868;2023-11-21T01:56:53;3.67;;;1.53;;
63807;SDS011;49961;43.970;22.868;2023-11-21T01:57:54;2.70;;;1.40;;
63807;SDS011;49961;43.970;22.868;2023-11-21T01:58:56;3.37;;;1.60;;
63807;SDS011;49961;43.970;22.868;2023-11-21T01:59:57;1.60;;;1.10;;
63807;SDS011;49961;43.970;22.868;2023-11-21T02:01:01;3.13;;;1.40;;
63807;SDS011;49961;43.970;22.868;2023-11-21T02:02:01;5.47;;;1.87;;
63807;SDS011;49961;43.970;22.868;2023-11-21T02:03:02;2.30;;;1.20;;
63807;SDS011;49961;43.970;22.868;2023-11-21T02:04:04;1.63;;;1.10;;
63807;SDS011;49961;43.970;22.868;2023-11-21T02:05:04;6.57;;;2.00;;
63807;SDS011;49961;43.970;22.868;2023-11-21T02:06:05;4.60;;;1.67;;
63807;SDS011;49961;43.970;22.868;2023-11-21T02:07:06;6.70;;;1.40;;
63807;SDS011;49961;43.970;22.868;2023-11-21T02:08:06;3.17;;;1.43;;
63807;SDS011;49961;43.970;22.868;2023-11-21T02:09:09;3.87;;;1.50;;
63807;SDS011;49961;43.970;22.868;2023-11-21T02:10:10;1.90;;;1.33;;
63807;SDS011;49961;43.970;22.868;2023-11-21T02:11:15;4.23;;;2.07;;
63807;SDS011;49961;43.970;22.868;2023-11-21T02:12:16;2.65;;;1.67;;
63807;SDS011;49961;43.970;22.868;2023-11-21T02:13:16;2.23;;;1.03;;
63807;SDS011;49961;43.970;22.868;2023-11-21T02:14:16;2.47;;;1.20;;
63807;SDS011;49961;43.970;22.868;2023-11-21T02:15:20;4.10;;;2.00;;
63807;SDS011;49961;43.970;22.868;2023-11-21T02:16:21;2.73;;;1.30;;
63807;SDS011;49961;43.970;22.868;2023-11-21T02:17:21;2.33;;;1.30;;
63807;SDS011;49961;43.970;22.868;2023-11-21T02:18:22;3.07;;;1.43;;
63807;SDS011;49961;43.970;22.868;2023-11-21T02:19:22;3.67;;;2.00;;
63807;SDS011;49961;43.970;22.868;2023-11-21T02:20:25;1.93;;;1.30;;
63807;SDS011;49961;43.970;22.868;2023-11-21T02:21:26;2.70;;;1.50;;
63807;SDS011;49961;43.970;22.868;2023-11-21T02:22:29;3.57;;;1.70;;
63807;SDS011;49961;43.970;22.868;2023-11-21T02:23:32;2.20;;;1.50;;
63807;SDS011;49961;43.970;22.868;2023-11-21T02:24:33;3.67;;;1.53;;
63807;SDS011;49961;43.970;22.868;2023-11-21T02:25:34;8.57;;;2.17;;
63807;SDS011;49961;43.970;22.868;2023-11-21T02:26:35;3.67;;;1.73;;
63807;SDS011;49961;43.970;22.868;2023-11-21T02:27:36;3.10;;;1.80;;
63807;SDS011;49961;43.970;22.868;2023-11-21T02:28:37;3.50;;;1.90;;
63807;SDS011;49961;43.970;22.868;2023-11-21T02:29:38;3.20;;;1.50;;
63807;SDS011;49961;43.970;22.868;2023-11-21T02:30:39;3.37;;;1.60;;
63807;SDS011;49961;43.970;22.868;2023-11-21T02:31:39;3.73;;;1.40;;
63807;SDS011;49961;43.970;22.868;2023-11-21T02:32:48;3.27;;;1.80;;
63807;SDS011;49961;43.970;22.868;2023-11-21T02:33:48;2.93;;;1.60;;
63807;SDS011;49961;43.970;22.868;2023-11-21T02:34:49;3.80;;;1.70;;
63807;SDS011;49961;43.970;22.868;2023-11-21T02:35:50;5.20;;;1.80;;
63807;SDS011;49961;43.970;22.868;2023-11-21T02:36:54;2.80;;;1.63;;
63807;SDS011;49961;43.970;22.868;2023-11-21T02:37:55;3.37;;;1.60;;
63807;SDS011;49961;43.970;22.868;2023-11-21T02:38:56;6.10;;;1.87;;
63807;SDS011;49961;43.970;22.868;2023-11-21T02:39:56;3.33;;;1.70;;
63807;SDS011;49961;43.970;22.868;2023-11-21T02:40:57;4.80;;;1.90;;
63807;SDS011;49961;43.970;22.868;2023-11-21T02:41:58;5.50;;;1.90;;
63807;SDS011;49961;43.970;22.868;2023-11-21T02:42:59;3.60;;;1.90;;
63807;SDS011;49961;43.970;22.868;2023-11-21T02:44:00;3.63;;;1.93;;
63807;SDS011;49961;43.970;22.868;2023-11-21T02:45:00;3.50;;;1.80;;
63807;SDS011;49961;43.970;22.868;2023-11-21T02:46:01;4.63;;;1.63;;
63807;SDS011;49961;43.970;22.868;2023-11-21T02:47:01;4.33;;;1.50;;
63807;SDS011;49961;43.970;22.868;2023-11-21T02:48:02;5.27;;;1.57;;
63807;SDS011;49961;43.970;22.868;2023-11-21T02:49:03;2.77;;;1.60;;
63807;SDS011;49961;43.970;22.868;2023-11-21T02:50:06;1.97;;;1.50;;
63807;SDS011;49961;43.970;22.868;2023-11-21T02:51:09;3.80;;;1.67;;
63807;SDS011;49961;43.970;22.868;2023-11-21T02:52:10;3.07;;;1.57;;
63807;SDS011;49961;43.970;22.868;2023-11-21T02:53:10;2.63;;;1.67;;
63807;SDS011;49961;43.970;22.868;2023-11-21T02:54:11;3.33;;;1.50;;
63807;SDS011;49961;43.970;22.868;2023-11-21T02:55:11;3.17;;;1.57;;
63807;SDS011;49961;43.970;22.868;2023-11-21T02:56:12;2.33;;;1.50;;
63807;SDS011;49961;43.970;22.868;2023-11-21T02:57:13;2.97;;;1.67;;
63807;SDS011;49961;43.970;22.868;2023-11-21T02:58:13;3.93;;;1.50;;
63807;SDS011;49961;43.970;22.868;2023-11-21T02:59:15;7.93;;;2.03;;
63807;SDS011;49961;43.970;22.868;2023-11-21T03:00:16;3.93;;;1.80;;
63807;SDS011;49961;43.970;22.868;2023-11-21T03:01:16;5.83;;;1.80;;
63807;SDS011;49961;43.970;22.868;2023-11-21T03:02:17;4.73;;;1.60;;
63807;SDS011;49961;43.970;22.868;2023-11-21T03:03:17;2.57;;;1.40;;
63807;SDS011;49961;43.970;22.868;2023-11-21T03:04:18;3.90;;;1.60;;
63807;SDS011;49961;43.970;22.868;2023-11-21T03:05:19;3.00;;;1.80;;
63807;SDS011;49961;43.970;22.868;2023-11-21T03:06:20;2.40;;;1.50;;
63807;SDS011;49961;43.970;22.868;2023-11-21T03:07:21;2.90;;;1.50;;
63807;SDS011;49961;43.970;22.868;2023-11-21T03:08:21;2.90;;;1.50;;
63807;SDS011;49961;43.970;22.868;2023-11-21T03:09:22;4.50;;;1.73;;
63807;SDS011;49961;43.970;22.868;2023-11-21T03:10:22;3.67;;;1.53;;
63807;SDS011;49961;43.970;22.868;2023-11-21T03:11:23;2.67;;;1.50;;
63807;SDS011;49961;43.970;22.868;2023-11-21T03:12:23;4.03;;;1.90;;
63807;SDS011;49961;43.970;22.868;2023-11-21T03:13:24;4.73;;;1.60;;
63807;SDS011;49961;43.970;22.868;2023-11-21T03:14:24;2.77;;;1.47;;
63807;SDS011;49961;43.970;22.868;2023-11-21T03:15:25;4.17;;;2.07;;
63807;SDS011;49961;43.970;22.868;2023-11-21T03:16:25;2.07;;;1.20;;
63807;SDS011;49961;43.970;22.868;2023-11-21T03:17:26;2.87;;;1.47;;
63807;SDS011;49961;43.970;22.868;2023-11-21T03:18:26;3.20;;;1.57;;
63807;SDS011;49961;43.970;22.868;2023-11-21T03:19:29;2.93;;;1.37;;
63807;SDS011;49961;43.970;22.868;2023-11-21T03:20:29;4.93;;;1.97;;
63807;SDS011;49961;43.970;22.868;2023-11-21T03:21:30;3.47;;;1.50;;
63807;SDS011;49961;43.970;22.868;2023-11-21T03:22:30;2.57;;;1.67;;
63807;SDS011;49961;43.970;22.868;2023-11-21T03:23:31;1.53;;;1.00;;
63807;SDS011;49961;43.970;22.868;2023-11-21T03:24:32;4.43;;;1.57;;
63807;SDS011;49961;43.970;22.868;2023-11-21T03:25:32;3.67;;;1.70;;
63807;SDS011;49961;43.970;22.868;2023-11-21T03:26:33;3.13;;;1.80;;
63807;SDS011;49961;43.970;22.868;2023-11-21T03:27:33;4.17;;;1.70;;
63807;SDS011;49961;43.970;22.868;2023-11-21T03:28:34;5.90;;;1.60;;
63807;SDS011;49961;43.970;22.868;2023-11-21T03:29:34;2.00;;;1.43;;
63807;SDS011;49961;43.970;22.868;2023-11-21T03:30:35;4.20;;;1.93;;
63807;SDS011;49961;43.970;22.868;2023-11-21T03:31:35;2.77;;;1.30;;
63807;SDS011;49961;43.970;22.868;2023-11-21T03:32:36;2.90;;;1.63;;
63807;SDS011;49961;43.970;22.868;2023-11-21T03:33:36;3.07;;;1.67;;
63807;SDS011;49961;43.970;22.868;2023-11-21T03:34:48;2.50;;;1.50;;
63807;SDS011;49961;43.970;22.868;2023-11-21T03:35:54;3.23;;;1.50;;
63807;SDS011;49961;43.970;22.868;2023-11-21T03:36:54;3.20;;;1.43;;
63807;SDS011;49961;43.970;22.868;2023-11-21T03:37:55;4.00;;;1.40;;
63807;SDS011;49961;43.970;22.868;2023-11-21T03:38:56;3.33;;;1.50;;
63807;SDS011;49961;43.970;22.868;2023-11-21T03:39:56;3.33;;;1.33;;
63807;SDS011;49961;43.970;22.868;2023-11-21T03:40:57;4.90;;;1.63;;
63807;SDS011;49961;43.970;22.868;2023-11-21T03:41:57;4.33;;;2.17;;
63807;SDS011;49961;43.970;22.868;2023-11-21T03:42:58;6.00;;;2.30;;
63807;SDS011;49961;43.970;22.868;2023-11-21T03:43:58;3.57;;;1.70;;
63807;SDS011;49961;43.970;22.868;2023-11-21T03:44:58;3.67;;;1.97;;
63807;SDS011;49961;43.970;22.868;2023-11-21T03:45:59;2.93;;;1.80;;
63807;SDS011;49961;43.970;22.868;2023-11-21T03:46:59;3.27;;;1.90;;
63807;SDS011;49961;43.970;22.868;2023-11-21T03:48:00;3.73;;;2.10;;
63807;SDS011;49961;43.970;22.868;2023-11-21T03:49:01;3.87;;;2.40;;
63807;SDS011;49961;43.970;22.868;2023-11-21T03:50:02;4.70;;;2.00;;
63807;SDS011;49961;43.970;22.868;2023-11-21T03:51:03;3.23;;;1.97;;
63807;SDS011;49961;43.970;22.868;2023-11-21T03:52:04;4.03;;;2.13;;
63807;SDS011;49961;43.970;22.868;2023-11-21T03:53:05;4.43;;;2.30;;
63807;SDS011;49961;43.970;22.868;2023-11-21T03:54:06;3.80;;;2.30;;
63807;SDS011;49961;43.970;22.868;2023-11-21T03:55:06;3.93;;;2.37;;
63807;SDS011;49961;43.970;22.868;2023-11-21T03:56:07;4.77;;;2.07;;
63807;SDS011;49961;43.970;22.868;2023-11-21T03:57:08;4.13;;;2.27;;
63807;SDS011;49961;43.970;22.868;2023-11-21T03:58:09;4.87;;;2.80;;
63807;SDS011;49961;43.970;22.868;2023-11-21T03:59:09;5.67;;;2.70;;
63807;SDS011;49961;43.970;22.868;2023-11-21T04:00:10;7.20;;;3.00;;
63807;SDS011;49961;43.970;22.868;2023-11-21T04:01:11;5.03;;;2.60;;
63807;SDS011;49961;43.970;22.868;2023-11-21T04:02:11;5.43;;;3.10;;
63807;SDS011;49961;43.970;22.868;2023-11-21T04:03:12;4.23;;;2.27;;
63807;SDS011;49961;43.970;22.868;2023-11-21T04:04:13;5.97;;;3.13;;
63807;SDS011;49961;43.970;22.868;2023-11-21T04:05:14;5.50;;;3.03;;
63807;SDS011;49961;43.970;22.868;2023-11-21T04:06:14;4.57;;;2.40;;
63807;SDS011;49961;43.970;22.868;2023-11-21T04:07:15;4.20;;;2.73;;
63807;SDS011;49961;43.970;22.868;2023-11-21T04:08:15;4.93;;;3.20;;
63807;SDS011;49961;43.970;22.868;2023-11-21T04:09:16;4.93;;;2.80;;
63807;SDS011;49961;43.970;22.868;2023-11-21T04:10:17;5.23;;;2.63;;
63807;SDS011;49961;43.970;22.868;2023-11-21T04:11:18;4.77;;;2.87;;
63807;SDS011;49961;43.970;22.868;2023-11-21T04:12:18;4.53;;;2.87;;
63807;SDS011;49961;43.970;22.868;2023-11-21T04:13:19;5.67;;;2.90;;
63807;SDS011;49961;43.970;22.868;2023-11-21T04:14:19;4.87;;;2.70;;
63807;SDS011;49961;43.970;22.868;2023-11-21T04:15:20;5.60;;;2.67;;
63807;SDS011;49961;43.970;22.868;2023-11-21T04:16:21;5.60;;;3.17;;
63807;SDS011;49961;43.970;22.868;2023-11-21T04:17:21;8.87;;;3.27;;
63807;SDS011;49961;43.970;22.868;2023-11-21T04:18:22;4.63;;;2.70;;
63807;SDS011;49961;43.970;22.868;2023-11-21T04:19:22;4.50;;;2.37;;
63807;SDS011;49961;43.970;22.868;2023-11-21T04:20:23;4.23;;;2.50;;
63807;SDS011;49961;43.970;22.868;2023-11-21T04:21:23;8.00;;;2.63;;
63807;SDS011;49961;43.970;22.868;2023-11-21T04:22:24;4.50;;;2.50;;
63807;SDS011;49961;43.970;22.868;2023-11-21T04:23:24;7.43;;;2.70;;
63807;SDS011;49961;43.970;22.868;2023-11-21T04:24:25;5.73;;;3.10;;
63807;SDS011;49961;43.970;22.868;2023-11-21T04:25:25;5.47;;;2.87;;
63807;SDS011;49961;43.970;22.868;2023-11-21T04:26:27;4.90;;;2.50;;
63807;SDS011;49961;43.970;22.868;2023-11-21T04:27:27;4.10;;;2.40;;
63807;SDS011;49961;43.970;22.868;2023-11-21T04:28:28;9.60;;;2.50;;
63807;SDS011;49961;43.970;22.868;2023-11-21T04:29:28;4.73;;;2.10;;
63807;SDS011;49961;43.970;22.868;2023-11-21T04:30:30;5.37;;;2.27;;
63807;SDS011;49961;43.970;22.868;2023-11-21T04:31:30;4.43;;;2.23;;
63807;SDS011;49961;43.970;22.868;2023-11-21T04:32:32;3.83;;;2.30;;
63807;SDS011;49961;43.970;22.868;2023-11-21T04:33:33;5.57;;;2.83;;
63807;SDS011;49961;43.970;22.868;2023-11-21T04:34:34;9.47;;;3.07;;
63807;SDS011;49961;43.970;22.868;2023-11-21T04:35:34;5.23;;;2.70;;
63807;SDS011;49961;43.970;22.868;2023-11-21T04:36:35;4.10;;;2.63;;
63807;SDS011;49961;43.970;22.868;2023-11-21T04:37:35;4.80;;;2.40;;
63807;SDS011;49961;43.970;22.868;2023-11-21T04:38:36;7.23;;;3.07;;
63807;SDS011;49961;43.970;22.868;2023-11-21T04:39:36;6.30;;;3.07;;
63807;SDS011;49961;43.970;22.868;2023-11-21T04:40:37;4.20;;;2.40;;
63807;SDS011;49961;43.970;22.868;2023-11-21T04:41:37;6.50;;;3.20;;
63807;SDS011;49961;43.970;22.868;2023-11-21T04:42:39;7.50;;;2.77;;
63807;SDS011;49961;43.970;22.868;2023-11-21T04:43:39;4.23;;;2.63;;
63807;SDS011;49961;43.970;22.868;2023-11-21T04:44:40;6.00;;;2.80;;
63807;SDS011;49961;43.970;22.868;2023-11-21T04:45:41;4.83;;;2.57;;
63807;SDS011;49961;43.970;22.868;2023-11-21T04:46:41;5.43;;;2.50;;
63807;SDS011;49961;43.970;22.868;2023-11-21T04:47:42;4.40;;;2.60;;
63807;SDS011;49961;43.970;22.868;2023-11-21T04:48:43;6.60;;;2.88;;
63807;SDS011;49961;43.970;22.868;2023-11-21T04:49:44;9.00;;;2.67;;
63807;SDS011;49961;43.970;22.868;2023-11-21T04:50:47;4.28;;;2.40;;
63807;SDS011;49961;43.970;22.868;2023-11-21T04:51:47;8.77;;;3.00;;
63807;SDS011;49961;43.970;22.868;2023-11-21T04:52:48;8.93;;;3.13;;
63807;SDS011;49961;43.970;22.868;2023-11-21T04:53:48;5.77;;;2.80;;
63807;SDS011;49961;43.970;22.868;2023-11-21T04:54:48;7.17;;;2.87;;
63807;SDS011;49961;43.970;22.868;2023-11-21T04:55:49;7.83;;;3.17;;
63807;SDS011;49961;43.970;22.868;2023-11-21T04:56:49;12.87;;;4.40;;
63807;SDS011;49961;43.970;22.868;2023-11-21T04:57:50;13.20;;;5.07;;
63807;SDS011;49961;43.970;22.868;2023-11-21T04:58:50;11.47;;;4.70;;
63807;SDS011;49961;43.970;22.868;2023-11-21T04:59:51;9.10;;;5.03;;
63807;SDS011;49961;43.970;22.868;2023-11-21T05:00:51;7.93;;;5.13;;
63807;SDS011;49961;43.970;22.868;2023-11-21T05:01:52;7.13;;;4.63;;
63807;SDS011;49961;43.970;22.868;2023-11-21T05:02:53;6.35;;;3.75;;
63807;SDS011;49961;43.970;22.868;2023-11-21T05:03:54;7.37;;;4.20;;
63807;SDS011;49961;43.970;22.868;2023-11-21T05:04:55;7.47;;;4.30;;
63807;SDS011;49961;43.970;22.868;2023-11-21T05:05:57;7.07;;;4.15;;
63807;SDS011;49961;43.970;22.868;2023-11-21T05:06:57;7.13;;;4.70;;
63807;SDS011;49961;43.970;22.868;2023-11-21T05:07:57;8.83;;;4.47;;
63807;SDS011;49961;43.970;22.868;2023-11-21T05:08:58;7.67;;;4.10;;
63807;SDS011;49961;43.970;22.868;2023-11-21T05:09:58;6.17;;;2.70;;
63807;SDS011;49961;43.970;22.868;2023-11-21T05:10:59;8.23;;;3.73;;
63807;SDS011;49961;43.970;22.868;2023-11-21T05:11:59;8.37;;;3.83;;
63807;SDS011;49961;43.970;22.868;2023-11-21T05:13:00;11.13;;;3.53;;
63807;SDS011;49961;43.970;22.868;2023-11-21T05:14:00;5.93;;;3.70;;
63807;SDS011;49961;43.970;22.868;2023-11-21T05:15:01;7.80;;;4.00;;
63807;SDS011;49961;43.970;22.868;2023-11-21T05:16:04;6.27;;;4.00;;
63807;SDS011;49961;43.970;22.868;2023-11-21T05:17:05;6.35;;;4.07;;
63807;SDS011;49961;43.970;22.868;2023-11-21T05:18:07;9.32;;;5.72;;
63807;SDS011;49961;43.970;22.868;2023-11-21T05:19:08;7.77;;;5.57;;
63807;SDS011;49961;43.970;22.868;2023-11-21T05:20:09;6.78;;;5.03;;
63807;SDS011;49961;43.970;22.868;2023-11-21T05:21:11;8.93;;;5.22;;
63807;SDS011;49961;43.970;22.868;2023-11-21T05:22:12;7.10;;;4.77;;
63807;SDS011;49961;43.970;22.868;2023-11-21T05:23:12;11.47;;;6.43;;
63807;SDS011;49961;43.970;22.868;2023-11-21T05:24:13;13.03;;;7.03;;
63807;SDS011;49961;43.970;22.868;2023-11-21T05:25:13;11.33;;;5.83;;
63807;SDS011;49961;43.970;22.868;2023-11-21T05:26:14;10.75;;;4.80;;
63807;SDS011;49961;43.970;22.868;2023-11-21T05:27:14;10.50;;;4.03;;
63807;SDS011;49961;43.970;22.868;2023-11-21T05:28:16;8.23;;;4.57;;
63807;SDS011;49961;43.970;22.868;2023-11-21T05:29:16;10.73;;;5.03;;
63807;SDS011;49961;43.970;22.868;2023-11-21T05:30:17;6.73;;;4.87;;
63807;SDS011;49961;43.970;22.868;2023-11-21T05:31:17;8.50;;;3.87;;
63807;SDS011;49961;43.970;22.868;2023-11-21T05:32:18;8.60;;;4.70;;
63807;SDS011;49961;43.970;22.868;2023-11-21T05:33:18;9.70;;;4.60;;
63807;SDS011;49961;43.970;22.868;2023-11-21T05:34:19;8.80;;;4.87;;
63807;SDS011;49961;43.970;22.868;2023-11-21T05:35:24;8.75;;;5.20;;
63807;SDS011;49961;43.970;22.868;2023-11-21T05:36:24;8.70;;;4.90;;
63807;SDS011;49961;43.970;22.868;2023-11-21T05:37:24;9.40;;;4.73;;
63807;SDS011;49961;43.970;22.868;2023-11-21T05:38:26;7.97;;;4.57;;
63807;SDS011;49961;43.970;22.868;2023-11-21T05:39:27;8.00;;;4.37;;
63807;SDS011;49961;43.970;22.868;2023-11-21T05:40:28;6.80;;;3.77;;
63807;SDS011;49961;43.970;22.868;2023-11-21T05:41:30;7.18;;;3.78;;
63807;SDS011;49961;43.970;22.868;2023-11-21T05:42:30;6.50;;;3.80;;
63807;SDS011;49961;43.970;22.868;2023-11-21T05:43:31;6.20;;;3.83;;
63807;SDS011;49961;43.970;22.868;2023-11-21T05:44:32;8.90;;;4.60;;
63807;SDS011;49961;43.970;22.868;2023-11-21T05:45:32;9.00;;;4.90;;
63807;SDS011;49961;43.970;22.868;2023-11-21T05:46:33;12.00;;;6.40;;
63807;SDS011;49961;43.970;22.868;2023-11-21T05:47:39;12.17;;;7.97;;
63807;SDS011;49961;43.970;22.868;2023-11-21T05:48:41;19.80;;;10.57;;
63807;SDS011;49961;43.970;22.868;2023-11-21T05:49:42;14.27;;;9.37;;
63807;SDS011;49961;43.970;22.868;2023-11-21T05:50:42;15.73;;;9.10;;
63807;SDS011;49961;43.970;22.868;2023-11-21T05:51:43;13.60;;;8.63;;
63807;SDS011;49961;43.970;22.868;2023-11-21T05:52:46;14.50;;;8.13;;
63807;SDS011;49961;43.970;22.868;2023-11-21T05:53:47;12.10;;;7.13;;
63807;SDS011;49961;43.970;22.868;2023-11-21T05:54:47;11.17;;;6.27;;
63807;SDS011;49961;43.970;22.868;2023-11-21T05:55:48;8.73;;;5.70;;
63807;SDS011;49961;43.970;22.868;2023-11-21T05:56:48;13.10;;;7.80;;
63807;SDS011;49961;43.970;22.868;2023-11-21T05:57:49;15.77;;;9.83;;
63807;SDS011;49961;43.970;22.868;2023-11-21T05:58:50;12.73;;;7.87;;
63807;SDS011;49961;43.970;22.868;2023-11-21T05:59:54;11.40;;;7.57;;
63807;SDS011;49961;43.970;22.868;2023-11-21T06:00:55;13.60;;;8.23;;
63807;SDS011;49961;43.970;22.868;2023-11-21T06:01:56;11.80;;;7.07;;